sensor_id;sensor_type;location;lat;lon;timestamp;P1;durP1;ratioP1;P2;durP2;ratioP2
32533;SDS011;18973;48.580;8.912;2023-07-02T00:00:38;3.28;;;2.00;;
32533;SDS011;18973;48.580;8.912;2023-07-02T00:03:04;5.90;;;1.80;;
32533;SDS011;18973;48.580;8.912;2023-07-02T00:05:29;3.20;;;2.13;;
32533;SDS011;18973;48.580;8.912;2023-07-02T00:07:55;4.45;;;2.20;;
32533;SDS011;18973;48.580;8.912;2023-07-02T00:10:21;2.75;;;1.92;;
32533;SDS011;18973;48.580;8.912;2023-07-02T00:12:47;3.17;;;2.38;;
32533;SDS011;18973;48.580;8.912;2023-07-02T00:15:12;7.88;;;2.67;;
32533;SDS011;18973;48.580;8.912;2023-07-02T00:17:38;4.25;;;2.05;;
32533;SDS011;18973;48.580;8.912;2023-07-02T00:20:05;2.58;;;2.08;;
32533;SDS011;18973;48.580;8.912;2023-07-02T00:22:39;5.57;;;2.63;;
32533;SDS011;18973;48.580;8.912;2023-07-02T00:25:07;6.90;;;2.38;;
32533;SDS011;18973;48.580;8.912;2023-07-02T00:27:32;3.55;;;1.98;;
32533;SDS011;18973;48.580;8.912;2023-07-02T00:29:58;3.17;;;2.42;;
32533;SDS011;18973;48.580;8.912;2023-07-02T00:32:24;2.55;;;1.95;;
32533;SDS011;18973;48.580;8.912;2023-07-02T00:34:50;3.55;;;2.08;;
32533;SDS011;18973;48.580;8.912;2023-07-02T00:37:16;4.35;;;2.35;;
32533;SDS011;18973;48.580;8.912;2023-07-02T00:39:42;4.40;;;2.22;;
32533;SDS011;18973;48.580;8.912;2023-07-02T00:42:07;3.75;;;2.42;;
32533;SDS011;18973;48.580;8.912;2023-07-02T00:44:33;2.25;;;2.05;;
32533;SDS011;18973;48.580;8.912;2023-07-02T00:47:06;3.28;;;2.20;;
32533;SDS011;18973;48.580;8.912;2023-07-02T00:49:33;4.97;;;2.30;;
32533;SDS011;18973;48.580;8.912;2023-07-02T00:51:58;3.33;;;2.53;;
32533;SDS011;18973;48.580;8.912;2023-07-02T00:54:27;4.10;;;2.70;;
32533;SDS011;18973;48.580;8.912;2023-07-02T00:56:53;2.50;;;2.22;;
32533;SDS011;18973;48.580;8.912;2023-07-02T00:59:19;4.30;;;2.35;;
32533;SDS011;18973;48.580;8.912;2023-07-02T01:01:45;4.65;;;1.95;;
32533;SDS011;18973;48.580;8.912;2023-07-02T01:04:16;2.47;;;2.05;;
32533;SDS011;18973;48.580;8.912;2023-07-02T01:06:43;6.03;;;2.83;;
32533;SDS011;18973;48.580;8.912;2023-07-02T01:09:09;4.47;;;2.78;;
32533;SDS011;18973;48.580;8.912;2023-07-02T01:11:43;3.92;;;2.53;;
32533;SDS011;18973;48.580;8.912;2023-07-02T01:16:37;4.68;;;2.35;;
32533;SDS011;18973;48.580;8.912;2023-07-02T01:19:09;3.72;;;2.33;;
32533;SDS011;18973;48.580;8.912;2023-07-02T01:21:38;2.90;;;2.25;;
32533;SDS011;18973;48.580;8.912;2023-07-02T01:24:04;4.50;;;2.38;;
32533;SDS011;18973;48.580;8.912;2023-07-02T01:26:31;4.00;;;2.33;;
32533;SDS011;18973;48.580;8.912;2023-07-02T01:28:59;7.22;;;2.22;;
32533;SDS011;18973;48.580;8.912;2023-07-02T01:31:25;5.28;;;2.28;;
32533;SDS011;18973;48.580;8.912;2023-07-02T01:33:51;2.97;;;2.35;;
32533;SDS011;18973;48.580;8.912;2023-07-02T01:36:17;4.72;;;2.50;;
32533;SDS011;18973;48.580;8.912;2023-07-02T01:38:43;3.22;;;2.35;;
32533;SDS011;18973;48.580;8.912;2023-07-02T01:41:09;3.95;;;2.92;;
32533;SDS011;18973;48.580;8.912;2023-07-02T01:43:34;4.43;;;2.95;;
32533;SDS011;18973;48.580;8.912;2023-07-02T01:46:00;2.85;;;2.25;;
32533;SDS011;18973;48.580;8.912;2023-07-02T01:48:26;4.95;;;2.63;;
32533;SDS011;18973;48.580;8.912;2023-07-02T01:50:52;5.35;;;2.60;;
32533;SDS011;18973;48.580;8.912;2023-07-02T01:53:18;3.85;;;2.40;;
32533;SDS011;18973;48.580;8.912;2023-07-02T01:55:44;3.20;;;2.70;;
32533;SDS011;18973;48.580;8.912;2023-07-02T01:58:09;4.65;;;2.65;;
32533;SDS011;18973;48.580;8.912;2023-07-02T02:00:35;3.30;;;2.53;;
32533;SDS011;18973;48.580;8.912;2023-07-02T02:03:01;2.80;;;2.40;;
32533;SDS011;18973;48.580;8.912;2023-07-02T02:05:27;5.10;;;2.83;;
32533;SDS011;18973;48.580;8.912;2023-07-02T02:07:52;6.22;;;3.03;;
32533;SDS011;18973;48.580;8.912;2023-07-02T02:10:18;6.05;;;2.60;;
32533;SDS011;18973;48.580;8.912;2023-07-02T02:12:44;4.97;;;2.95;;
32533;SDS011;18973;48.580;8.912;2023-07-02T02:15:10;4.78;;;2.80;;
32533;SDS011;18973;48.580;8.912;2023-07-02T02:17:38;4.65;;;2.97;;
32533;SDS011;18973;48.580;8.912;2023-07-02T02:20:04;5.05;;;2.05;;
32533;SDS011;18973;48.580;8.912;2023-07-02T02:22:31;3.35;;;2.38;;
32533;SDS011;18973;48.580;8.912;2023-07-02T02:24:57;4.88;;;2.35;;
32533;SDS011;18973;48.580;8.912;2023-07-02T02:27:23;4.35;;;2.28;;
32533;SDS011;18973;48.580;8.912;2023-07-02T02:29:48;5.05;;;2.75;;
32533;SDS011;18973;48.580;8.912;2023-07-02T02:32:14;4.18;;;2.47;;
32533;SDS011;18973;48.580;8.912;2023-07-02T02:34:42;5.40;;;2.50;;
32533;SDS011;18973;48.580;8.912;2023-07-02T02:37:08;2.95;;;2.47;;
32533;SDS011;18973;48.580;8.912;2023-07-02T02:39:33;2.30;;;2.10;;
32533;SDS011;18973;48.580;8.912;2023-07-02T02:41:59;3.78;;;2.50;;
32533;SDS011;18973;48.580;8.912;2023-07-02T02:44:25;4.43;;;2.53;;
32533;SDS011;18973;48.580;8.912;2023-07-02T02:46:50;4.18;;;3.22;;
32533;SDS011;18973;48.580;8.912;2023-07-02T02:49:16;3.22;;;2.90;;
32533;SDS011;18973;48.580;8.912;2023-07-02T02:51:41;10.00;;;3.97;;
32533;SDS011;18973;48.580;8.912;2023-07-02T02:54:08;5.20;;;3.35;;
32533;SDS011;18973;48.580;8.912;2023-07-02T02:56:33;2.63;;;2.28;;
32533;SDS011;18973;48.580;8.912;2023-07-02T02:58:59;7.15;;;3.20;;
32533;SDS011;18973;48.580;8.912;2023-07-02T03:01:25;4.40;;;2.53;;
32533;SDS011;18973;48.580;8.912;2023-07-02T03:03:55;7.45;;;2.75;;
32533;SDS011;18973;48.580;8.912;2023-07-02T03:06:20;6.70;;;3.28;;
32533;SDS011;18973;48.580;8.912;2023-07-02T03:08:46;3.67;;;2.92;;
32533;SDS011;18973;48.580;8.912;2023-07-02T03:11:12;7.13;;;3.28;;
32533;SDS011;18973;48.580;8.912;2023-07-02T03:13:37;5.68;;;3.35;;
32533;SDS011;18973;48.580;8.912;2023-07-02T03:16:03;5.80;;;3.20;;
32533;SDS011;18973;48.580;8.912;2023-07-02T03:18:29;7.43;;;3.40;;
32533;SDS011;18973;48.580;8.912;2023-07-02T03:20:54;5.95;;;3.20;;
32533;SDS011;18973;48.580;8.912;2023-07-02T03:23:20;6.75;;;3.83;;
32533;SDS011;18973;48.580;8.912;2023-07-02T03:25:46;4.82;;;2.97;;
32533;SDS011;18973;48.580;8.912;2023-07-02T03:28:12;7.10;;;3.10;;
32533;SDS011;18973;48.580;8.912;2023-07-02T03:30:37;8.10;;;3.55;;
32533;SDS011;18973;48.580;8.912;2023-07-02T03:33:03;5.03;;;3.35;;
32533;SDS011;18973;48.580;8.912;2023-07-02T03:35:29;4.30;;;2.85;;
32533;SDS011;18973;48.580;8.912;2023-07-02T03:37:54;6.88;;;3.22;;
32533;SDS011;18973;48.580;8.912;2023-07-02T03:40:22;7.13;;;4.28;;
32533;SDS011;18973;48.580;8.912;2023-07-02T03:42:48;4.45;;;2.83;;
32533;SDS011;18973;48.580;8.912;2023-07-02T03:45:14;7.63;;;3.20;;
32533;SDS011;18973;48.580;8.912;2023-07-02T03:47:39;5.45;;;2.78;;
32533;SDS011;18973;48.580;8.912;2023-07-02T03:50:05;4.68;;;2.40;;
32533;SDS011;18973;48.580;8.912;2023-07-02T03:52:31;5.05;;;2.60;;
32533;SDS011;18973;48.580;8.912;2023-07-02T03:54:57;3.25;;;2.40;;
32533;SDS011;18973;48.580;8.912;2023-07-02T03:57:22;5.05;;;2.30;;
32533;SDS011;18973;48.580;8.912;2023-07-02T03:59:48;8.60;;;2.60;;
32533;SDS011;18973;48.580;8.912;2023-07-02T04:02:14;7.65;;;2.75;;
32533;SDS011;18973;48.580;8.912;2023-07-02T04:04:39;2.72;;;2.03;;
32533;SDS011;18973;48.580;8.912;2023-07-02T04:07:05;3.50;;;2.30;;
32533;SDS011;18973;48.580;8.912;2023-07-02T04:09:31;3.53;;;2.10;;
32533;SDS011;18973;48.580;8.912;2023-07-02T04:11:57;8.50;;;2.33;;
32533;SDS011;18973;48.580;8.912;2023-07-02T04:14:24;4.25;;;2.10;;
32533;SDS011;18973;48.580;8.912;2023-07-02T04:16:50;3.03;;;2.10;;
32533;SDS011;18973;48.580;8.912;2023-07-02T04:19:15;2.80;;;2.45;;
32533;SDS011;18973;48.580;8.912;2023-07-02T04:21:41;3.70;;;2.85;;
32533;SDS011;18973;48.580;8.912;2023-07-02T04:24:07;3.60;;;2.13;;
32533;SDS011;18973;48.580;8.912;2023-07-02T04:26:32;4.55;;;2.35;;
32533;SDS011;18973;48.580;8.912;2023-07-02T04:28:58;5.93;;;2.05;;
32533;SDS011;18973;48.580;8.912;2023-07-02T04:31:24;5.15;;;2.80;;
32533;SDS011;18973;48.580;8.912;2023-07-02T04:33:50;2.78;;;1.75;;
32533;SDS011;18973;48.580;8.912;2023-07-02T04:36:15;3.15;;;2.40;;
32533;SDS011;18973;48.580;8.912;2023-07-02T04:38:41;6.00;;;3.00;;
32533;SDS011;18973;48.580;8.912;2023-07-02T04:41:07;7.00;;;2.88;;
32533;SDS011;18973;48.580;8.912;2023-07-02T04:43:35;4.10;;;2.20;;
32533;SDS011;18973;48.580;8.912;2023-07-02T04:46:01;5.18;;;2.53;;
32533;SDS011;18973;48.580;8.912;2023-07-02T04:48:27;8.23;;;2.90;;
32533;SDS011;18973;48.580;8.912;2023-07-02T04:50:53;9.48;;;2.80;;
32533;SDS011;18973;48.580;8.912;2023-07-02T04:53:19;4.07;;;2.90;;
32533;SDS011;18973;48.580;8.912;2023-07-02T04:55:44;7.35;;;2.72;;
32533;SDS011;18973;48.580;8.912;2023-07-02T04:58:10;5.38;;;2.38;;
32533;SDS011;18973;48.580;8.912;2023-07-02T05:00:36;5.60;;;2.88;;
32533;SDS011;18973;48.580;8.912;2023-07-02T05:03:01;7.22;;;2.40;;
32533;SDS011;18973;48.580;8.912;2023-07-02T05:05:27;3.17;;;1.85;;
32533;SDS011;18973;48.580;8.912;2023-07-02T05:07:54;4.40;;;2.72;;
32533;SDS011;18973;48.580;8.912;2023-07-02T05:10:19;5.53;;;2.30;;
32533;SDS011;18973;48.580;8.912;2023-07-02T05:12:46;4.72;;;2.65;;
32533;SDS011;18973;48.580;8.912;2023-07-02T05:15:11;5.80;;;3.13;;
32533;SDS011;18973;48.580;8.912;2023-07-02T05:17:37;6.38;;;3.10;;
32533;SDS011;18973;48.580;8.912;2023-07-02T05:20:03;5.18;;;2.78;;
32533;SDS011;18973;48.580;8.912;2023-07-02T05:22:29;4.72;;;3.38;;
32533;SDS011;18973;48.580;8.912;2023-07-02T05:24:55;5.10;;;3.13;;
32533;SDS011;18973;48.580;8.912;2023-07-02T05:27:21;4.07;;;2.95;;
32533;SDS011;18973;48.580;8.912;2023-07-02T05:29:47;6.93;;;3.17;;
32533;SDS011;18973;48.580;8.912;2023-07-02T05:32:12;4.93;;;3.22;;
32533;SDS011;18973;48.580;8.912;2023-07-02T05:34:38;6.40;;;3.05;;
32533;SDS011;18973;48.580;8.912;2023-07-02T05:37:04;7.95;;;3.38;;
32533;SDS011;18973;48.580;8.912;2023-07-02T05:39:30;6.05;;;3.10;;
32533;SDS011;18973;48.580;8.912;2023-07-02T05:41:56;5.38;;;3.08;;
32533;SDS011;18973;48.580;8.912;2023-07-02T05:44:21;5.38;;;3.10;;
32533;SDS011;18973;48.580;8.912;2023-07-02T05:46:48;6.60;;;3.42;;
32533;SDS011;18973;48.580;8.912;2023-07-02T05:49:14;4.47;;;2.95;;
32533;SDS011;18973;48.580;8.912;2023-07-02T05:51:39;7.30;;;3.40;;
32533;SDS011;18973;48.580;8.912;2023-07-02T05:54:05;6.63;;;3.47;;
32533;SDS011;18973;48.580;8.912;2023-07-02T05:56:32;7.50;;;3.47;;
32533;SDS011;18973;48.580;8.912;2023-07-02T05:58:57;7.43;;;3.47;;
32533;SDS011;18973;48.580;8.912;2023-07-02T06:01:23;6.25;;;3.63;;
32533;SDS011;18973;48.580;8.912;2023-07-02T06:03:49;6.13;;;2.75;;
32533;SDS011;18973;48.580;8.912;2023-07-02T06:06:15;8.48;;;3.67;;
32533;SDS011;18973;48.580;8.912;2023-07-02T06:08:41;10.05;;;3.83;;
32533;SDS011;18973;48.580;8.912;2023-07-02T06:11:07;9.25;;;4.18;;
32533;SDS011;18973;48.580;8.912;2023-07-02T06:13:34;5.28;;;3.78;;
32533;SDS011;18973;48.580;8.912;2023-07-02T06:16:00;6.10;;;3.80;;
32533;SDS011;18973;48.580;8.912;2023-07-02T06:18:25;8.75;;;4.45;;
32533;SDS011;18973;48.580;8.912;2023-07-02T06:20:51;12.38;;;4.68;;
32533;SDS011;18973;48.580;8.912;2023-07-02T06:23:17;10.25;;;4.93;;
32533;SDS011;18973;48.580;8.912;2023-07-02T06:25:42;15.52;;;7.03;;
32533;SDS011;18973;48.580;8.912;2023-07-02T06:28:09;14.88;;;5.70;;
32533;SDS011;18973;48.580;8.912;2023-07-02T06:30:35;13.18;;;7.18;;
32533;SDS011;18973;48.580;8.912;2023-07-02T06:33:01;13.50;;;6.85;;
32533;SDS011;18973;48.580;8.912;2023-07-02T06:35:27;14.63;;;7.35;;
32533;SDS011;18973;48.580;8.912;2023-07-02T06:37:52;15.50;;;7.07;;
32533;SDS011;18973;48.580;8.912;2023-07-02T06:40:18;15.63;;;8.55;;
32533;SDS011;18973;48.580;8.912;2023-07-02T06:42:45;22.63;;;8.55;;
32533;SDS011;18973;48.580;8.912;2023-07-02T06:45:10;16.85;;;8.45;;
32533;SDS011;18973;48.580;8.912;2023-07-02T06:47:36;15.75;;;8.30;;
32533;SDS011;18973;48.580;8.912;2023-07-02T06:50:02;24.42;;;9.05;;
32533;SDS011;18973;48.580;8.912;2023-07-02T06:52:28;20.45;;;8.98;;
32533;SDS011;18973;48.580;8.912;2023-07-02T06:54:54;18.05;;;9.52;;
32533;SDS011;18973;48.580;8.912;2023-07-02T06:57:20;18.33;;;9.82;;
32533;SDS011;18973;48.580;8.912;2023-07-02T06:59:45;23.02;;;9.93;;
32533;SDS011;18973;48.580;8.912;2023-07-02T07:02:11;17.50;;;9.80;;
32533;SDS011;18973;48.580;8.912;2023-07-02T07:04:37;21.38;;;10.13;;
32533;SDS011;18973;48.580;8.912;2023-07-02T07:07:02;19.38;;;10.57;;
32533;SDS011;18973;48.580;8.912;2023-07-02T07:09:29;19.95;;;11.38;;
32533;SDS011;18973;48.580;8.912;2023-07-02T07:11:55;26.40;;;10.85;;
32533;SDS011;18973;48.580;8.912;2023-07-02T07:14:21;24.13;;;12.05;;
32533;SDS011;18973;48.580;8.912;2023-07-02T07:16:47;24.10;;;11.27;;
32533;SDS011;18973;48.580;8.912;2023-07-02T07:19:13;29.33;;;11.50;;
32533;SDS011;18973;48.580;8.912;2023-07-02T07:21:39;27.45;;;12.77;;
32533;SDS011;18973;48.580;8.912;2023-07-02T07:24:05;21.17;;;12.07;;
32533;SDS011;18973;48.580;8.912;2023-07-02T07:26:31;20.10;;;11.88;;
32533;SDS011;18973;48.580;8.912;2023-07-02T07:28:57;20.65;;;10.45;;
32533;SDS011;18973;48.580;8.912;2023-07-02T07:31:23;24.95;;;11.98;;
32533;SDS011;18973;48.580;8.912;2023-07-02T07:33:49;21.80;;;11.57;;
32533;SDS011;18973;48.580;8.912;2023-07-02T07:36:15;19.30;;;11.30;;
32533;SDS011;18973;48.580;8.912;2023-07-02T07:38:42;19.52;;;10.93;;
32533;SDS011;18973;48.580;8.912;2023-07-02T07:41:08;20.95;;;10.77;;
32533;SDS011;18973;48.580;8.912;2023-07-02T07:43:34;21.50;;;10.30;;
32533;SDS011;18973;48.580;8.912;2023-07-02T07:46:00;23.00;;;11.02;;
32533;SDS011;18973;48.580;8.912;2023-07-02T07:48:26;27.17;;;12.10;;
32533;SDS011;18973;48.580;8.912;2023-07-02T07:50:52;29.80;;;12.30;;
32533;SDS011;18973;48.580;8.912;2023-07-02T07:53:17;24.52;;;11.68;;
32533;SDS011;18973;48.580;8.912;2023-07-02T07:55:43;21.77;;;11.52;;
32533;SDS011;18973;48.580;8.912;2023-07-02T07:58:09;26.00;;;13.02;;
32533;SDS011;18973;48.580;8.912;2023-07-02T08:00:34;23.55;;;12.23;;
32533;SDS011;18973;48.580;8.912;2023-07-02T08:03:01;21.98;;;12.00;;
32533;SDS011;18973;48.580;8.912;2023-07-02T08:05:28;21.30;;;11.30;;
32533;SDS011;18973;48.580;8.912;2023-07-02T08:07:54;21.25;;;11.90;;
32533;SDS011;18973;48.580;8.912;2023-07-02T08:10:20;23.08;;;11.18;;
32533;SDS011;18973;48.580;8.912;2023-07-02T08:12:46;22.63;;;11.63;;
32533;SDS011;18973;48.580;8.912;2023-07-02T08:15:12;29.42;;;12.23;;
32533;SDS011;18973;48.580;8.912;2023-07-02T08:17:38;27.23;;;11.80;;
32533;SDS011;18973;48.580;8.912;2023-07-02T08:20:04;19.55;;;11.27;;
32533;SDS011;18973;48.580;8.912;2023-07-02T08:22:34;22.40;;;11.55;;
32533;SDS011;18973;48.580;8.912;2023-07-02T08:25:01;22.48;;;11.85;;
32533;SDS011;18973;48.580;8.912;2023-07-02T08:27:26;26.90;;;12.85;;
32533;SDS011;18973;48.580;8.912;2023-07-02T08:29:52;23.20;;;11.57;;
32533;SDS011;18973;48.580;8.912;2023-07-02T08:32:17;21.08;;;10.90;;
32533;SDS011;18973;48.580;8.912;2023-07-02T08:34:43;22.10;;;10.75;;
32533;SDS011;18973;48.580;8.912;2023-07-02T08:37:09;21.77;;;11.48;;
32533;SDS011;18973;48.580;8.912;2023-07-02T08:39:35;20.00;;;11.27;;
32533;SDS011;18973;48.580;8.912;2023-07-02T08:42:02;20.42;;;10.90;;
32533;SDS011;18973;48.580;8.912;2023-07-02T08:44:28;20.73;;;10.88;;
32533;SDS011;18973;48.580;8.912;2023-07-02T08:46:54;20.55;;;11.68;;
32533;SDS011;18973;48.580;8.912;2023-07-02T08:49:21;21.70;;;10.63;;
32533;SDS011;18973;48.580;8.912;2023-07-02T08:51:47;22.92;;;12.25;;
32533;SDS011;18973;48.580;8.912;2023-07-02T08:54:13;21.02;;;11.02;;
32533;SDS011;18973;48.580;8.912;2023-07-02T08:56:42;19.48;;;10.20;;
32533;SDS011;18973;48.580;8.912;2023-07-02T08:59:07;19.33;;;10.40;;
32533;SDS011;18973;48.580;8.912;2023-07-02T09:01:49;29.30;;;11.00;;
32533;SDS011;18973;48.580;8.912;2023-07-02T09:04:19;14.90;;;9.57;;
32533;SDS011;18973;48.580;8.912;2023-07-02T09:06:48;27.02;;;12.50;;
32533;SDS011;18973;48.580;8.912;2023-07-02T09:09:15;21.65;;;11.25;;
32533;SDS011;18973;48.580;8.912;2023-07-02T09:11:49;19.67;;;10.55;;
32533;SDS011;18973;48.580;8.912;2023-07-02T09:14:28;28.15;;;10.60;;
32533;SDS011;18973;48.580;8.912;2023-07-02T09:17:05;20.00;;;10.52;;
32533;SDS011;18973;48.580;8.912;2023-07-02T09:19:33;19.05;;;10.85;;
32533;SDS011;18973;48.580;8.912;2023-07-02T09:21:59;20.02;;;11.75;;
32533;SDS011;18973;48.580;8.912;2023-07-02T09:24:26;19.02;;;11.23;;
32533;SDS011;18973;48.580;8.912;2023-07-02T09:26:53;19.15;;;11.63;;
32533;SDS011;18973;48.580;8.912;2023-07-02T09:29:21;26.67;;;12.13;;
32533;SDS011;18973;48.580;8.912;2023-07-02T09:32:04;23.67;;;12.30;;
32533;SDS011;18973;48.580;8.912;2023-07-02T09:34:34;25.25;;;12.65;;
32533;SDS011;18973;48.580;8.912;2023-07-02T09:37:01;25.50;;;12.70;;
32533;SDS011;18973;48.580;8.912;2023-07-02T09:39:29;26.75;;;12.95;;
32533;SDS011;18973;48.580;8.912;2023-07-02T09:41:56;20.38;;;13.40;;
32533;SDS011;18973;48.580;8.912;2023-07-02T09:44:25;21.50;;;12.30;;
32533;SDS011;18973;48.580;8.912;2023-07-02T09:47:05;24.08;;;12.60;;
32533;SDS011;18973;48.580;8.912;2023-07-02T09:49:35;20.73;;;12.13;;
32533;SDS011;18973;48.580;8.912;2023-07-02T09:52:10;27.65;;;12.85;;
32533;SDS011;18973;48.580;8.912;2023-07-02T09:54:36;25.92;;;12.55;;
32533;SDS011;18973;48.580;8.912;2023-07-02T09:57:03;20.73;;;11.82;;
32533;SDS011;18973;48.580;8.912;2023-07-02T09:59:31;24.25;;;12.73;;
32533;SDS011;18973;48.580;8.912;2023-07-02T10:01:56;21.48;;;13.10;;
32533;SDS011;18973;48.580;8.912;2023-07-02T10:04:24;24.67;;;12.85;;
32533;SDS011;18973;48.580;8.912;2023-07-02T10:06:50;22.73;;;13.30;;
32533;SDS011;18973;48.580;8.912;2023-07-02T10:09:18;21.67;;;12.60;;
32533;SDS011;18973;48.580;8.912;2023-07-02T10:11:44;24.55;;;12.80;;
32533;SDS011;18973;48.580;8.912;2023-07-02T10:14:10;24.48;;;13.57;;
32533;SDS011;18973;48.580;8.912;2023-07-02T10:16:49;26.95;;;13.85;;
32533;SDS011;18973;48.580;8.912;2023-07-02T10:19:19;26.13;;;14.75;;
32533;SDS011;18973;48.580;8.912;2023-07-02T10:21:45;29.38;;;15.75;;
32533;SDS011;18973;48.580;8.912;2023-07-02T10:24:15;25.13;;;15.07;;
32533;SDS011;18973;48.580;8.912;2023-07-02T10:26:54;26.27;;;14.85;;
32533;SDS011;18973;48.580;8.912;2023-07-02T10:29:24;26.60;;;16.17;;
32533;SDS011;18973;48.580;8.912;2023-07-02T10:31:51;26.83;;;16.23;;
32533;SDS011;18973;48.580;8.912;2023-07-02T10:34:28;30.38;;;16.60;;
32533;SDS011;18973;48.580;8.912;2023-07-02T10:36:55;34.78;;;16.08;;
32533;SDS011;18973;48.580;8.912;2023-07-02T10:39:21;26.10;;;14.90;;
32533;SDS011;18973;48.580;8.912;2023-07-02T10:41:46;26.65;;;15.45;;
32533;SDS011;18973;48.580;8.912;2023-07-02T10:44:12;26.20;;;15.55;;
32533;SDS011;18973;48.580;8.912;2023-07-02T10:46:47;23.48;;;15.38;;
32533;SDS011;18973;48.580;8.912;2023-07-02T10:49:14;28.63;;;14.95;;
32533;SDS011;18973;48.580;8.912;2023-07-02T10:51:42;27.52;;;14.77;;
32533;SDS011;18973;48.580;8.912;2023-07-02T10:54:08;26.30;;;14.20;;
32533;SDS011;18973;48.580;8.912;2023-07-02T10:56:34;24.85;;;15.15;;
32533;SDS011;18973;48.580;8.912;2023-07-02T10:59:00;26.10;;;15.13;;
32533;SDS011;18973;48.580;8.912;2023-07-02T11:01:27;24.40;;;14.52;;
32533;SDS011;18973;48.580;8.912;2023-07-02T11:04:00;21.63;;;13.13;;
32533;SDS011;18973;48.580;8.912;2023-07-02T11:06:28;26.45;;;15.10;;
32533;SDS011;18973;48.580;8.912;2023-07-02T11:08:55;28.60;;;14.55;;
32533;SDS011;18973;48.580;8.912;2023-07-02T11:11:22;22.42;;;14.30;;
32533;SDS011;18973;48.580;8.912;2023-07-02T11:13:49;21.92;;;13.20;;
32533;SDS011;18973;48.580;8.912;2023-07-02T11:16:26;22.77;;;12.93;;
32533;SDS011;18973;48.580;8.912;2023-07-02T11:19:09;25.95;;;13.85;;
32533;SDS011;18973;48.580;8.912;2023-07-02T11:21:35;26.08;;;13.18;;
32533;SDS011;18973;48.580;8.912;2023-07-02T11:24:05;23.30;;;13.55;;
32533;SDS011;18973;48.580;8.912;2023-07-02T11:26:35;23.05;;;13.82;;
32533;SDS011;18973;48.580;8.912;2023-07-02T11:29:17;20.65;;;13.18;;
32533;SDS011;18973;48.580;8.912;2023-07-02T11:31:43;23.25;;;13.00;;
32533;SDS011;18973;48.580;8.912;2023-07-02T11:34:13;24.02;;;13.68;;
32533;SDS011;18973;48.580;8.912;2023-07-02T11:36:40;25.65;;;12.70;;
32533;SDS011;18973;48.580;8.912;2023-07-02T11:39:05;26.80;;;12.70;;
32533;SDS011;18973;48.580;8.912;2023-07-02T11:41:40;20.45;;;12.40;;
32533;SDS011;18973;48.580;8.912;2023-07-02T11:44:07;26.88;;;12.18;;
32533;SDS011;18973;48.580;8.912;2023-07-02T11:46:33;22.17;;;13.43;;
32533;SDS011;18973;48.580;8.912;2023-07-02T11:49:00;24.00;;;12.23;;
32533;SDS011;18973;48.580;8.912;2023-07-02T11:51:26;17.83;;;11.88;;
32533;SDS011;18973;48.580;8.912;2023-07-02T11:53:52;20.67;;;12.90;;
32533;SDS011;18973;48.580;8.912;2023-07-02T11:56:20;28.70;;;13.13;;
32533;SDS011;18973;48.580;8.912;2023-07-02T11:58:46;24.45;;;12.48;;
32533;SDS011;18973;48.580;8.912;2023-07-02T12:01:11;17.67;;;11.52;;
32533;SDS011;18973;48.580;8.912;2023-07-02T12:03:37;19.48;;;11.63;;
32533;SDS011;18973;48.580;8.912;2023-07-02T12:06:03;21.58;;;12.10;;
32533;SDS011;18973;48.580;8.912;2023-07-02T12:08:28;19.55;;;12.48;;
32533;SDS011;18973;48.580;8.912;2023-07-02T12:10:54;25.05;;;13.77;;
32533;SDS011;18973;48.580;8.912;2023-07-02T12:13:20;20.58;;;11.80;;
32533;SDS011;18973;48.580;8.912;2023-07-02T12:15:48;19.23;;;12.00;;
32533;SDS011;18973;48.580;8.912;2023-07-02T12:18:16;22.17;;;12.93;;
32533;SDS011;18973;48.580;8.912;2023-07-02T12:20:42;19.92;;;11.95;;
32533;SDS011;18973;48.580;8.912;2023-07-02T12:23:08;18.48;;;11.10;;
32533;SDS011;18973;48.580;8.912;2023-07-02T12:25:35;21.73;;;12.10;;
32533;SDS011;18973;48.580;8.912;2023-07-02T12:28:04;18.48;;;12.02;;
32533;SDS011;18973;48.580;8.912;2023-07-02T12:30:30;18.38;;;11.15;;
32533;SDS011;18973;48.580;8.912;2023-07-02T12:32:56;21.27;;;11.75;;
32533;SDS011;18973;48.580;8.912;2023-07-02T12:35:22;19.70;;;13.00;;
32533;SDS011;18973;48.580;8.912;2023-07-02T12:37:50;23.55;;;12.63;;
32533;SDS011;18973;48.580;8.912;2023-07-02T12:40:17;19.30;;;11.80;;
32533;SDS011;18973;48.580;8.912;2023-07-02T12:42:44;19.67;;;12.20;;
32533;SDS011;18973;48.580;8.912;2023-07-02T12:45:11;22.10;;;12.98;;
32533;SDS011;18973;48.580;8.912;2023-07-02T12:47:38;18.58;;;11.52;;
32533;SDS011;18973;48.580;8.912;2023-07-02T12:50:05;14.73;;;10.50;;
32533;SDS011;18973;48.580;8.912;2023-07-02T12:52:32;18.73;;;12.02;;
32533;SDS011;18973;48.580;8.912;2023-07-02T12:54:58;19.38;;;12.13;;
32533;SDS011;18973;48.580;8.912;2023-07-02T12:57:24;22.77;;;13.02;;
32533;SDS011;18973;48.580;8.912;2023-07-02T12:59:51;26.90;;;12.38;;
32533;SDS011;18973;48.580;8.912;2023-07-02T13:02:18;19.33;;;12.38;;
32533;SDS011;18973;48.580;8.912;2023-07-02T13:04:44;19.60;;;12.27;;
32533;SDS011;18973;48.580;8.912;2023-07-02T13:07:09;24.17;;;12.93;;
32533;SDS011;18973;48.580;8.912;2023-07-02T13:09:35;19.25;;;13.18;;
32533;SDS011;18973;48.580;8.912;2023-07-02T13:12:01;21.40;;;12.48;;
32533;SDS011;18973;48.580;8.912;2023-07-02T13:14:27;17.48;;;11.90;;
32533;SDS011;18973;48.580;8.912;2023-07-02T13:16:52;20.08;;;12.10;;
32533;SDS011;18973;48.580;8.912;2023-07-02T13:19:18;25.17;;;14.13;;
32533;SDS011;18973;48.580;8.912;2023-07-02T13:21:44;18.00;;;11.77;;
32533;SDS011;18973;48.580;8.912;2023-07-02T13:24:10;21.77;;;13.27;;
32533;SDS011;18973;48.580;8.912;2023-07-02T13:26:37;21.70;;;14.45;;
32533;SDS011;18973;48.580;8.912;2023-07-02T13:29:03;24.60;;;15.07;;
32533;SDS011;18973;48.580;8.912;2023-07-02T13:31:28;21.75;;;13.35;;
32533;SDS011;18973;48.580;8.912;2023-07-02T13:33:54;19.40;;;12.77;;
32533;SDS011;18973;48.580;8.912;2023-07-02T13:36:20;19.60;;;12.75;;
32533;SDS011;18973;48.580;8.912;2023-07-02T13:38:45;22.42;;;13.15;;
32533;SDS011;18973;48.580;8.912;2023-07-02T13:41:11;21.92;;;13.88;;
32533;SDS011;18973;48.580;8.912;2023-07-02T13:43:37;21.20;;;13.48;;
32533;SDS011;18973;48.580;8.912;2023-07-02T13:46:03;21.17;;;13.20;;
32533;SDS011;18973;48.580;8.912;2023-07-02T13:48:29;24.60;;;14.23;;
32533;SDS011;18973;48.580;8.912;2023-07-02T13:50:55;23.88;;;14.80;;
32533;SDS011;18973;48.580;8.912;2023-07-02T13:53:21;22.25;;;13.85;;
32533;SDS011;18973;48.580;8.912;2023-07-02T13:55:46;19.92;;;13.55;;
32533;SDS011;18973;48.580;8.912;2023-07-02T13:58:12;21.25;;;14.13;;
32533;SDS011;18973;48.580;8.912;2023-07-02T14:00:38;22.52;;;14.05;;
32533;SDS011;18973;48.580;8.912;2023-07-02T14:03:04;21.58;;;14.32;;
32533;SDS011;18973;48.580;8.912;2023-07-02T14:05:30;19.95;;;13.10;;
32533;SDS011;18973;48.580;8.912;2023-07-02T14:07:56;22.67;;;14.40;;
32533;SDS011;18973;48.580;8.912;2023-07-02T14:10:21;24.35;;;14.68;;
32533;SDS011;18973;48.580;8.912;2023-07-02T14:12:47;22.95;;;13.52;;
32533;SDS011;18973;48.580;8.912;2023-07-02T14:15:13;21.98;;;13.88;;
32533;SDS011;18973;48.580;8.912;2023-07-02T14:17:39;20.20;;;14.45;;
32533;SDS011;18973;48.580;8.912;2023-07-02T14:20:05;19.52;;;13.43;;
32533;SDS011;18973;48.580;8.912;2023-07-02T14:22:32;20.90;;;12.93;;
32533;SDS011;18973;48.580;8.912;2023-07-02T14:24:58;20.48;;;13.65;;
32533;SDS011;18973;48.580;8.912;2023-07-02T14:27:23;19.15;;;13.25;;
32533;SDS011;18973;48.580;8.912;2023-07-02T14:29:49;23.20;;;14.48;;
32533;SDS011;18973;48.580;8.912;2023-07-02T14:32:15;21.77;;;14.88;;